Time;durP1;ratioP1;P1;durP2;ratioP2;P2;SDS_P1;SDS_P2;PMS_P1;PMS_P2;Temp;Humidity;BMP_temperature;BMP_pressure;BME280_temperature;BME280_humidity;BME280_pressure;Samples;Min_cycle;Max_cycle;Signal;HPM_P1;HPM_P2
2023/12/04 00:00:28;;;;;;;32.65;10.52;;;;;;;;;;5115526;28;20046;-50
2023/12/04 00:02:54;;;;;;;36.13;12.02;;;;;;;;;;5113078;28;20032;-55
2023/12/04 00:05:21;;;;;;;34.40;10.25;;;;;;;;;;5106318;28;20019;-56
2023/12/04 00:07:48;;;;;;;37.97;10.10;;;;;;;;;;5106015;28;20024;-52
2023/12/04 00:10:15;;;;;;;45.33;10.55;;;;;;;;;;5105960;28;20095;-56
2023/12/04 00:12:41;;;;;;;50.45;11.48;;;;;;;;;;5105880;28;20051;-54
2023/12/04 00:15:09;;;;;;;31.85;9.88;;;;;;;;;;5106328;28;20035;-50
2023/12/04 00:17:39;;;;;;;22.73;10.25;;;;;;;;;;5105755;28;20096;-52
2023/12/04 00:20:09;;;;;;;31.50;9.93;;;;;;;;;;5107464;28;20331;-52
2023/12/04 00:22:37;;;;;;;75.78;13.85;;;;;;;;;;5114733;28;20077;-54
2023/12/04 00:25:05;;;;;;;108.03;16.15;;;;;;;;;;5108851;28;20188;-50
2023/12/04 00:27:32;;;;;;;128.95;18.48;;;;;;;;;;5118798;28;20026;-48
2023/12/04 00:29:58;;;;;;;94.53;17.17;;;;;;;;;;5119653;28;20024;-47
2023/12/04 00:32:25;;;;;;;92.55;16.17;;;;;;;;;;5114121;28;20210;-50
2023/12/04 00:34:52;;;;;;;58.95;13.63;;;;;;;;;;5105700;28;20054;-49
2023/12/04 00:37:19;;;;;;;43.03;13.23;;;;;;;;;;5105592;28;20339;-46
2023/12/04 00:39:45;;;;;;;40.90;14.00;;;;;;;;;;5105510;28;20073;-47
2023/12/04 00:42:12;;;;;;;30.10;13.55;;;;;;;;;;5113721;28;20315;-50
2023/12/04 00:44:44;;;;;;;26.75;11.27;;;;;;;;;;5108228;28;20038;-48
2023/12/04 00:47:10;;;;;;;21.95;10.73;;;;;;;;;;5105126;28;20315;-51
2023/12/04 00:49:37;;;;;;;19.63;8.85;;;;;;;;;;5105647;28;20020;-50
2023/12/04 00:52:04;;;;;;;23.40;8.85;;;;;;;;;;5105233;28;20036;-49
2023/12/04 00:54:31;;;;;;;15.73;8.40;;;;;;;;;;5107455;27;20020;-49
2023/12/04 00:56:59;;;;;;;15.90;7.70;;;;;;;;;;5134280;27;20083;-51
2023/12/04 00:59:26;;;;;;;14.90;8.43;;;;;;;;;;5116687;28;20026;-50
2023/12/04 01:01:52;;;;;;;23.50;8.63;;;;;;;;;;5123306;28;20086;-53
2023/12/04 01:04:19;;;;;;;16.60;8.40;;;;;;;;;;5114229;28;20072;-54
2023/12/04 01:06:46;;;;;;;13.02;8.48;;;;;;;;;;5105145;28;20031;-49
2023/12/04 01:09:12;;;;;;;13.57;8.48;;;;;;;;;;5104661;28;20207;-51
2023/12/04 01:11:39;;;;;;;14.57;8.38;;;;;;;;;;5104576;28;20016;-48
2023/12/04 01:14:06;;;;;;;15.48;8.13;;;;;;;;;;5107077;28;20069;-51
2023/12/04 01:16:32;;;;;;;18.38;7.75;;;;;;;;;;5113500;28;20032;-52
2023/12/04 01:19:02;;;;;;;14.45;7.68;;;;;;;;;;5104894;28;20027;-51
2023/12/04 01:21:28;;;;;;;17.30;7.40;;;;;;;;;;5104590;28;20056;-47
2023/12/04 01:23:55;;;;;;;21.58;7.72;;;;;;;;;;5104110;28;20048;-47
2023/12/04 01:26:22;;;;;;;11.48;7.45;;;;;;;;;;5104234;28;20020;-56
2023/12/04 01:28:49;;;;;;;14.88;6.80;;;;;;;;;;5115725;28;20035;-49
2023/12/04 01:31:15;;;;;;;12.07;7.28;;;;;;;;;;5104310;28;20028;-51
2023/12/04 01:33:42;;;;;;;18.70;7.60;;;;;;;;;;5104612;28;20022;-50
2023/12/04 01:36:09;;;;;;;16.83;7.53;;;;;;;;;;5104481;28;20040;-53
2023/12/04 01:38:36;;;;;;;13.95;8.25;;;;;;;;;;5104316;28;20257;-56
2023/12/04 01:41:04;;;;;;;12.18;7.07;;;;;;;;;;5104208;28;20027;-49
2023/12/04 01:43:32;;;;;;;11.10;7.38;;;;;;;;;;5104157;28;20035;-54
2023/12/04 01:46:00;;;;;;;13.95;7.13;;;;;;;;;;5106645;28;20028;-50
2023/12/04 01:48:27;;;;;;;15.48;6.82;;;;;;;;;;5113244;28;20020;-50
2023/12/04 01:50:54;;;;;;;16.88;8.02;;;;;;;;;;5104294;28;20028;-52
2023/12/04 01:53:21;;;;;;;14.40;7.88;;;;;;;;;;5113465;28;20019;-49
2023/12/04 01:55:48;;;;;;;15.25;7.85;;;;;;;;;;5104644;28;20072;-56
2023/12/04 01:58:14;;;;;;;17.65;7.78;;;;;;;;;;5104192;28;20028;-51
2023/12/04 02:00:41;;;;;;;12.02;7.40;;;;;;;;;;5104136;28;20024;-46
2023/12/04 02:03:09;;;;;;;13.48;6.70;;;;;;;;;;5114973;28;20086;-47
2023/12/04 02:05:36;;;;;;;14.43;6.40;;;;;;;;;;5104193;28;20150;-48
2023/12/04 02:08:03;;;;;;;19.20;7.03;;;;;;;;;;5103883;28;20079;-50
2023/12/04 02:10:30;;;;;;;14.55;6.40;;;;;;;;;;5104289;28;20181;-46
2023/12/04 02:12:59;;;;;;;14.13;6.20;;;;;;;;;;5130210;28;20067;-49
2023/12/04 02:15:27;;;;;;;10.90;6.68;;;;;;;;;;5145349;28;20027;-46
2023/12/04 02:17:54;;;;;;;14.55;6.50;;;;;;;;;;5144651;28;20057;-49
2023/12/04 02:20:21;;;;;;;13.18;6.53;;;;;;;;;;5124897;28;20090;-47
2023/12/04 02:22:48;;;;;;;13.13;6.72;;;;;;;;;;5123766;28;20122;-55
2023/12/04 02:25:15;;;;;;;17.00;7.72;;;;;;;;;;5118306;28;20231;-46
2023/12/04 02:27:47;;;;;;;14.45;8.05;;;;;;;;;;5124839;28;20077;-53
2023/12/04 02:30:15;;;;;;;17.00;8.05;;;;;;;;;;5120294;28;20245;-50
2023/12/04 02:32:48;;;;;;;13.95;8.15;;;;;;;;;;5144766;28;20383;-45
2023/12/04 02:35:15;;;;;;;16.08;8.25;;;;;;;;;;5131730;28;20358;-47
2023/12/04 02:37:42;;;;;;;14.15;7.97;;;;;;;;;;5115606;28;20260;-48
2023/12/04 02:40:09;;;;;;;12.38;7.28;;;;;;;;;;5139533;28;20060;-47
2023/12/04 02:42:36;;;;;;;12.63;7.20;;;;;;;;;;5144624;28;20215;-52
2023/12/04 02:45:03;;;;;;;12.48;7.30;;;;;;;;;;5144940;28;20383;-56
2023/12/04 02:47:29;;;;;;;14.38;7.70;;;;;;;;;;5144712;28;20027;-48
2023/12/04 02:50:00;;;;;;;12.40;6.55;;;;;;;;;;5145256;28;20071;-51
2023/12/04 02:52:26;;;;;;;11.52;6.35;;;;;;;;;;5144439;28;20027;-49
2023/12/04 02:54:54;;;;;;;9.05;5.95;;;;;;;;;;5144675;28;20033;-51
2023/12/04 02:57:24;;;;;;;13.77;6.75;;;;;;;;;;5142666;28;20059;-48
2023/12/04 02:59:50;;;;;;;13.90;6.40;;;;;;;;;;5132933;28;20054;-49
2023/12/04 03:02:18;;;;;;;16.45;6.47;;;;;;;;;;5144259;28;20023;-50
2023/12/04 03:04:46;;;;;;;10.68;6.63;;;;;;;;;;5144506;28;20086;-48
2023/12/04 03:07:12;;;;;;;14.80;6.55;;;;;;;;;;5147611;27;20054;-49
2023/12/04 03:09:39;;;;;;;11.93;6.22;;;;;;;;;;5148578;27;20034;-53
2023/12/04 03:12:07;;;;;;;12.32;6.53;;;;;;;;;;5148270;27;20323;-48
2023/12/04 03:14:34;;;;;;;10.45;5.85;;;;;;;;;;5148184;27;20035;-50
2023/12/04 03:17:02;;;;;;;11.90;6.25;;;;;;;;;;5148083;27;20019;-49
2023/12/04 03:19:29;;;;;;;12.13;5.68;;;;;;;;;;5146750;27;20272;-49
2023/12/04 03:21:55;;;;;;;11.35;5.05;;;;;;;;;;5146850;27;20067;-48
2023/12/04 03:24:23;;;;;;;10.02;5.32;;;;;;;;;;5148109;27;20176;-52
2023/12/04 03:26:50;;;;;;;5.93;4.60;;;;;;;;;;5147846;27;20047;-46
2023/12/04 03:29:17;;;;;;;7.13;4.30;;;;;;;;;;5147918;27;20034;-47
2023/12/04 03:31:43;;;;;;;6.85;4.70;;;;;;;;;;5147802;27;20291;-50
2023/12/04 03:34:10;;;;;;;7.50;4.60;;;;;;;;;;5148004;27;20040;-45
2023/12/04 03:36:37;;;;;;;10.65;4.47;;;;;;;;;;5147699;27;20050;-49
2023/12/04 03:39:04;;;;;;;10.82;4.55;;;;;;;;;;5147789;27;20030;-47
2023/12/04 03:41:33;;;;;;;8.02;4.40;;;;;;;;;;5147527;27;20026;-47
2023/12/04 03:44:00;;;;;;;9.63;4.63;;;;;;;;;;5147444;27;20094;-52
2023/12/04 03:46:26;;;;;;;9.27;4.80;;;;;;;;;;5147609;27;20068;-50
2023/12/04 03:48:53;;;;;;;9.15;4.70;;;;;;;;;;5147472;27;20027;-50
2023/12/04 03:51:20;;;;;;;7.78;4.65;;;;;;;;;;5147332;27;20035;-49
2023/12/04 03:53:46;;;;;;;8.18;4.68;;;;;;;;;;5147607;27;20019;-47
2023/12/04 03:56:13;;;;;;;9.85;4.00;;;;;;;;;;5147506;27;20200;-44
2023/12/04 03:58:40;;;;;;;6.32;4.30;;;;;;;;;;5147500;27;20076;-51
2023/12/04 04:01:07;;;;;;;6.68;4.10;;;;;;;;;;5147442;27;20268;-48
2023/12/04 04:03:34;;;;;;;8.88;4.68;;;;;;;;;;5147107;27;20027;-50
2023/12/04 04:06:00;;;;;;;7.50;4.35;;;;;;;;;;5146982;27;20095;-46
2023/12/04 04:08:27;;;;;;;10.57;5.30;;;;;;;;;;5147340;27;20026;-51
2023/12/04 04:10:54;;;;;;;10.68;6.57;;;;;;;;;;5146832;27;20035;-51
2023/12/04 04:13:20;;;;;;;11.88;7.93;;;;;;;;;;5146857;27;20035;-44
2023/12/04 04:15:47;;;;;;;12.38;8.30;;;;;;;;;;5146795;27;20031;-45
2023/12/04 04:18:14;;;;;;;10.07;7.20;;;;;;;;;;5145583;27;20031;-44
2023/12/04 04:20:40;;;;;;;10.13;7.40;;;;;;;;;;5146801;27;20051;-52
2023/12/04 04:23:08;;;;;;;10.57;7.40;;;;;;;;;;5146922;27;20018;-45
2023/12/04 04:25:35;;;;;;;14.38;7.50;;;;;;;;;;5146578;27;20027;-52
2023/12/04 04:28:02;;;;;;;10.93;7.10;;;;;;;;;;5146688;27;20030;-45
2023/12/04 04:30:29;;;;;;;10.38;7.03;;;;;;;;;;5147093;27;20046;-44
2023/12/04 04:32:55;;;;;;;12.40;7.20;;;;;;;;;;5146548;27;20351;-45
2023/12/04 04:35:22;;;;;;;13.68;7.25;;;;;;;;;;5146834;27;20084;-45
2023/12/04 04:37:49;;;;;;;11.60;7.57;;;;;;;;;;5146584;27;20026;-45
2023/12/04 04:40:16;;;;;;;9.63;6.53;;;;;;;;;;5146860;27;20039;-48
2023/12/04 04:42:44;;;;;;;10.05;6.75;;;;;;;;;;5146153;27;20054;-44
2023/12/04 04:45:11;;;;;;;12.40;6.30;;;;;;;;;;5146743;27;20015;-49
2023/12/04 04:47:37;;;;;;;9.45;5.95;;;;;;;;;;5121426;27;20038;-46
2023/12/04 04:50:04;;;;;;;11.32;5.72;;;;;;;;;;5112125;28;20055;-52
2023/12/04 04:52:31;;;;;;;10.20;5.88;;;;;;;;;;5110283;28;20099;-50
2023/12/04 04:54:58;;;;;;;7.60;5.15;;;;;;;;;;5105546;28;20047;-49
2023/12/04 04:57:25;;;;;;;7.15;4.97;;;;;;;;;;5105406;28;20032;-52
2023/12/04 04:59:51;;;;;;;8.07;5.07;;;;;;;;;;5105437;28;20024;-52
2023/12/04 05:02:19;;;;;;;10.95;4.65;;;;;;;;;;5105400;28;20054;-50
2023/12/04 05:04:46;;;;;;;10.40;5.40;;;;;;;;;;5105370;28;20243;-49
2023/12/04 05:07:13;;;;;;;9.75;4.95;;;;;;;;;;5105122;28;20363;-49
2023/12/04 05:09:39;;;;;;;11.75;4.90;;;;;;;;;;5105224;28;20036;-46
2023/12/04 05:12:06;;;;;;;9.10;5.45;;;;;;;;;;5104760;28;20069;-48
2023/12/04 05:14:33;;;;;;;8.00;4.65;;;;;;;;;;5105221;28;20408;-45
2023/12/04 05:17:00;;;;;;;8.52;4.22;;;;;;;;;;5105157;28;20107;-49
2023/12/04 05:19:26;;;;;;;6.55;4.50;;;;;;;;;;5105080;28;20063;-44
2023/12/04 05:21:53;;;;;;;8.32;4.80;;;;;;;;;;5104549;28;20282;-51
2023/12/04 05:24:20;;;;;;;8.07;4.57;;;;;;;;;;5115800;28;20076;-48
2023/12/04 05:26:47;;;;;;;8.48;4.45;;;;;;;;;;5110985;28;20035;-48
2023/12/04 05:29:13;;;;;;;10.63;5.22;;;;;;;;;;5124821;28;20020;-51
2023/12/04 05:31:40;;;;;;;6.32;4.88;;;;;;;;;;5125050;28;20054;-46
2023/12/04 05:34:07;;;;;;;5.38;4.25;;;;;;;;;;5125102;28;20031;-46
2023/12/04 05:36:34;;;;;;;6.15;4.47;;;;;;;;;;5124782;28;20069;-47
2023/12/04 05:39:00;;;;;;;8.57;4.50;;;;;;;;;;5124870;28;20034;-45
2023/12/04 05:41:27;;;;;;;5.90;4.57;;;;;;;;;;5124815;28;20039;-47
2023/12/04 05:43:54;;;;;;;5.55;4.13;;;;;;;;;;5124456;28;20039;-46
2023/12/04 05:46:20;;;;;;;7.38;4.05;;;;;;;;;;5124744;28;20035;-46
2023/12/04 05:48:47;;;;;;;9.80;4.28;;;;;;;;;;5124910;28;20251;-45
2023/12/04 05:51:15;;;;;;;6.07;3.80;;;;;;;;;;5124416;28;20027;-45
2023/12/04 05:53:42;;;;;;;6.13;3.80;;;;;;;;;;5124506;28;20053;-45
2023/12/04 05:56:09;;;;;;;4.45;3.90;;;;;;;;;;5124669;28;20039;-46
2023/12/04 05:58:36;;;;;;;6.07;3.72;;;;;;;;;;5124500;28;20117;-49
2023/12/04 06:01:02;;;;;;;5.18;3.67;;;;;;;;;;5124550;28;20035;-46
2023/12/04 06:03:29;;;;;;;5.38;4.10;;;;;;;;;;5124753;28;20051;-47
2023/12/04 06:05:56;;;;;;;6.22;3.60;;;;;;;;;;5124354;28;20069;-44
2023/12/04 06:08:22;;;;;;;3.92;3.22;;;;;;;;;;5124741;28;20027;-44
2023/12/04 06:10:49;;;;;;;5.68;3.85;;;;;;;;;;5125752;28;20035;-46
2023/12/04 06:13:18;;;;;;;6.30;3.50;;;;;;;;;;5144847;28;20015;-48
2023/12/04 06:15:45;;;;;;;7.60;3.85;;;;;;;;;;5145065;28;20042;-46
2023/12/04 06:18:12;;;;;;;5.90;3.25;;;;;;;;;;5145052;28;20087;-50
2023/12/04 06:20:38;;;;;;;6.22;2.97;;;;;;;;;;5144840;28;20050;-46
2023/12/04 06:23:05;;;;;;;7.07;3.63;;;;;;;;;;5144735;28;20027;-47
2023/12/04 06:25:32;;;;;;;5.18;3.20;;;;;;;;;;5145497;28;20024;-48
2023/12/04 06:27:59;;;;;;;6.07;3.53;;;;;;;;;;5144721;28;20026;-51
2023/12/04 06:30:26;;;;;;;6.90;3.63;;;;;;;;;;5145258;28;20053;-46
2023/12/04 06:32:53;;;;;;;5.55;3.40;;;;;;;;;;5145188;28;20046;-48
2023/12/04 06:35:20;;;;;;;5.63;3.70;;;;;;;;;;5144921;28;20257;-48
2023/12/04 06:37:48;;;;;;;6.30;3.45;;;;;;;;;;5144760;28;20039;-46
2023/12/04 06:40:15;;;;;;;5.20;3.25;;;;;;;;;;5145314;27;20038;-51
2023/12/04 06:42:41;;;;;;;5.95;3.70;;;;;;;;;;5148593;27;20026;-46
2023/12/04 06:45:09;;;;;;;6.55;3.55;;;;;;;;;;5149262;27;20027;-44
2023/12/04 06:47:35;;;;;;;7.45;3.65;;;;;;;;;;5148585;27;20031;-45
2023/12/04 06:50:02;;;;;;;5.55;3.55;;;;;;;;;;5148686;27;20022;-48
2023/12/04 06:52:29;;;;;;;5.93;3.70;;;;;;;;;;5148706;27;20043;-45
2023/12/04 06:54:56;;;;;;;5.47;3.55;;;;;;;;;;5148769;27;20027;-45
2023/12/04 06:57:22;;;;;;;5.35;3.72;;;;;;;;;;5148392;27;20023;-49
2023/12/04 06:59:49;;;;;;;7.75;3.85;;;;;;;;;;5148898;27;20087;-52
2023/12/04 07:02:16;;;;;;;5.60;3.75;;;;;;;;;;5148451;27;20035;-47
2023/12/04 07:04:42;;;;;;;9.48;4.10;;;;;;;;;;5148554;27;20222;-44
2023/12/04 07:07:09;;;;;;;6.30;3.83;;;;;;;;;;5148363;27;20027;-47
2023/12/04 07:09:36;;;;;;;8.27;3.78;;;;;;;;;;5148375;27;20296;-50
2023/12/04 07:12:03;;;;;;;6.72;3.83;;;;;;;;;;5148343;27;20019;-46
2023/12/04 07:14:29;;;;;;;5.65;4.03;;;;;;;;;;5133420;27;20028;-47
2023/12/04 07:16:56;;;;;;;7.53;3.90;;;;;;;;;;5116248;28;20042;-48
2023/12/04 07:19:23;;;;;;;5.80;4.15;;;;;;;;;;5107135;28;20015;-52
2023/12/04 07:21:50;;;;;;;6.82;3.80;;;;;;;;;;5106866;28;20344;-46
2023/12/04 07:24:17;;;;;;;7.47;4.47;;;;;;;;;;5107087;28;20035;-49
2023/12/04 07:26:44;;;;;;;12.90;4.28;;;;;;;;;;5107256;28;20020;-46
2023/12/04 07:29:11;;;;;;;7.97;4.55;;;;;;;;;;5107349;28;20083;-45
2023/12/04 07:31:38;;;;;;;4.82;3.83;;;;;;;;;;5106883;28;20055;-46
2023/12/04 07:34:05;;;;;;;5.82;4.10;;;;;;;;;;5106756;28;20102;-47
2023/12/04 07:36:32;;;;;;;6.68;3.80;;;;;;;;;;5106672;28;20042;-46
2023/12/04 07:38:59;;;;;;;6.10;3.92;;;;;;;;;;5106901;28;20078;-45
2023/12/04 07:41:25;;;;;;;4.10;3.53;;;;;;;;;;5106661;28;20043;-44
2023/12/04 07:43:52;;;;;;;4.55;3.90;;;;;;;;;;5106796;28;20027;-46
2023/12/04 07:46:19;;;;;;;6.03;3.90;;;;;;;;;;5106510;28;20028;-51
2023/12/04 07:48:46;;;;;;;5.38;3.38;;;;;;;;;;5107224;28;20075;-45
2023/12/04 07:51:12;;;;;;;6.05;3.60;;;;;;;;;;5106142;28;20051;-45
2023/12/04 07:53:40;;;;;;;6.40;3.70;;;;;;;;;;5106718;28;20095;-46
2023/12/04 07:56:07;;;;;;;4.75;3.72;;;;;;;;;;5106332;28;20027;-50
2023/12/04 07:58:34;;;;;;;5.43;3.63;;;;;;;;;;5106307;28;20077;-48
2023/12/04 08:01:00;;;;;;;6.13;3.97;;;;;;;;;;5106182;28;20028;-45
2023/12/04 08:03:28;;;;;;;5.97;3.60;;;;;;;;;;5106015;28;20016;-45
2023/12/04 08:05:54;;;;;;;5.32;3.60;;;;;;;;;;5106105;28;20381;-46
2023/12/04 08:08:21;;;;;;;5.88;3.78;;;;;;;;;;5106523;28;20224;-50
2023/12/04 08:10:48;;;;;;;7.88;3.95;;;;;;;;;;5106341;28;20046;-46
2023/12/04 08:13:16;;;;;;;5.63;3.80;;;;;;;;;;5105933;28;20213;-44
2023/12/04 08:15:42;;;;;;;6.57;3.95;;;;;;;;;;5105944;28;20255;-46
2023/12/04 08:18:09;;;;;;;6.57;4.20;;;;;;;;;;5106052;28;20016;-47
2023/12/04 08:20:36;;;;;;;7.10;4.15;;;;;;;;;;5106092;28;20044;-49
2023/12/04 08:23:03;;;;;;;6.93;3.88;;;;;;;;;;5106376;28;20197;-46
2023/12/04 08:25:30;;;;;;;6.32;3.88;;;;;;;;;;5106414;28;20043;-45
2023/12/04 08:27:56;;;;;;;6.88;3.53;;;;;;;;;;5105662;28;20261;-45
2023/12/04 08:30:24;;;;;;;6.78;3.70;;;;;;;;;;5106463;28;20026;-47
2023/12/04 08:32:50;;;;;;;5.68;3.50;;;;;;;;;;5105798;28;20031;-44
2023/12/04 08:35:17;;;;;;;4.70;3.72;;;;;;;;;;5105473;28;20024;-53
2023/12/04 08:37:44;;;;;;;6.35;3.97;;;;;;;;;;5105732;28;20040;-46
2023/12/04 08:40:11;;;;;;;4.68;3.33;;;;;;;;;;5106113;28;20019;-47
2023/12/04 08:42:38;;;;;;;5.10;3.53;;;;;;;;;;5105393;28;20039;-49
2023/12/04 08:45:08;;;;;;;5.28;3.30;;;;;;;;;;5105847;28;20059;-45
2023/12/04 08:47:36;;;;;;;4.75;2.90;;;;;;;;;;5105257;28;20320;-47
2023/12/04 08:50:02;;;;;;;7.25;3.70;;;;;;;;;;5104873;28;20024;-48
2023/12/04 08:52:29;;;;;;;3.92;3.13;;;;;;;;;;5105657;28;20228;-46
2023/12/04 08:54:56;;;;;;;4.78;3.20;;;;;;;;;;5105648;28;20016;-45
2023/12/04 08:57:23;;;;;;;4.53;3.53;;;;;;;;;;5104896;28;20028;-48
2023/12/04 08:59:50;;;;;;;6.88;3.60;;;;;;;;;;5105408;28;20028;-50
2023/12/04 09:02:16;;;;;;;5.00;3.33;;;;;;;;;;5104943;28;20091;-45
2023/12/04 09:04:43;;;;;;;4.32;3.22;;;;;;;;;;5104788;28;20036;-48
2023/12/04 09:07:10;;;;;;;6.07;3.72;;;;;;;;;;5105145;28;20036;-44
2023/12/04 09:09:36;;;;;;;6.60;3.50;;;;;;;;;;5105254;28;20016;-46
2023/12/04 09:12:03;;;;;;;5.82;3.45;;;;;;;;;;5104925;28;20054;-47
2023/12/04 09:14:30;;;;;;;7.85;3.33;;;;;;;;;;5105085;28;20362;-46
2023/12/04 09:16:57;;;;;;;6.35;3.58;;;;;;;;;;5104705;28;20024;-45
2023/12/04 09:19:23;;;;;;;4.50;3.30;;;;;;;;;;5104958;28;20036;-44
2023/12/04 09:21:50;;;;;;;10.65;3.88;;;;;;;;;;5104402;28;20107;-46
2023/12/04 09:24:17;;;;;;;4.15;3.30;;;;;;;;;;5104858;28;20031;-46
2023/12/04 09:26:44;;;;;;;8.63;4.10;;;;;;;;;;5105063;28;20039;-45
2023/12/04 09:29:13;;;;;;;8.00;3.67;;;;;;;;;;5104647;28;20070;-51
2023/12/04 09:31:40;;;;;;;6.75;4.00;;;;;;;;;;5104585;28;20012;-50
2023/12/04 09:34:08;;;;;;;6.32;3.78;;;;;;;;;;5104755;28;20036;-51
2023/12/04 09:36:35;;;;;;;7.20;4.30;;;;;;;;;;5104309;28;20058;-50
2023/12/04 09:39:03;;;;;;;5.72;3.90;;;;;;;;;;5104966;28;20194;-49
2023/12/04 09:41:30;;;;;;;5.43;3.63;;;;;;;;;;5104458;28;20081;-47
2023/12/04 09:43:58;;;;;;;5.47;3.92;;;;;;;;;;5104446;28;20035;-48
2023/12/04 09:46:25;;;;;;;7.38;4.13;;;;;;;;;;5104437;28;20024;-49
2023/12/04 09:48:52;;;;;;;6.25;3.47;;;;;;;;;;5104436;28;20225;-45
2023/12/04 09:51:19;;;;;;;6.63;4.03;;;;;;;;;;5104636;28;20220;-46
2023/12/04 09:53:48;;;;;;;9.50;3.95;;;;;;;;;;5104199;28;20043;-52
2023/12/04 09:56:17;;;;;;;6.53;3.92;;;;;;;;;;5104138;28;20099;-48
2023/12/04 09:58:45;;;;;;;6.18;4.15;;;;;;;;;;5104676;28;20040;-48
2023/12/04 10:01:12;;;;;;;5.60;3.97;;;;;;;;;;5104417;28;20028;-54
2023/12/04 10:03:39;;;;;;;6.78;4.30;;;;;;;;;;5103960;28;20050;-51
2023/12/04 10:06:07;;;;;;;10.10;4.32;;;;;;;;;;5104349;28;20059;-49
2023/12/04 10:08:34;;;;;;;6.22;4.35;;;;;;;;;;5103987;28;20027;-46
2023/12/04 10:11:01;;;;;;;6.65;4.22;;;;;;;;;;5104342;28;20056;-47
2023/12/04 10:13:28;;;;;;;7.85;4.25;;;;;;;;;;5103797;28;20285;-48
2023/12/04 10:15:55;;;;;;;9.05;4.53;;;;;;;;;;5105870;28;20080;-44
2023/12/04 10:18:26;;;;;;;8.10;4.25;;;;;;;;;;5108428;28;20047;-45
2023/12/04 10:20:55;;;;;;;9.90;4.30;;;;;;;;;;5108142;28;20059;-45
2023/12/04 10:23:22;;;;;;;7.80;4.07;;;;;;;;;;5108052;28;20308;-50
2023/12/04 10:25:50;;;;;;;8.85;4.03;;;;;;;;;;5107867;28;20020;-46
2023/12/04 10:28:17;;;;;;;11.80;4.65;;;;;;;;;;5107909;28;20031;-45
2023/12/04 10:30:44;;;;;;;12.57;4.43;;;;;;;;;;5107941;28;20065;-46
2023/12/04 10:33:12;;;;;;;13.10;4.20;;;;;;;;;;5107841;28;20032;-45
2023/12/04 10:35:38;;;;;;;7.50;4.10;;;;;;;;;;5107732;28;20066;-44
2023/12/04 10:38:06;;;;;;;7.50;3.92;;;;;;;;;;5107909;28;20189;-49
2023/12/04 10:40:34;;;;;;;10.88;3.88;;;;;;;;;;5107998;28;20028;-48
2023/12/04 10:43:10;;;;;;;11.60;3.88;;;;;;;;;;5107780;28;20325;-45
2023/12/04 10:45:40;;;;;;;11.07;4.13;;;;;;;;;;5107989;28;20331;-47
2023/12/04 10:48:07;;;;;;;8.93;4.10;;;;;;;;;;5107490;28;20232;-45
2023/12/04 10:50:38;;;;;;;12.93;4.47;;;;;;;;;;5107744;28;20016;-46
2023/12/04 10:53:11;;;;;;;17.45;4.22;;;;;;;;;;5107698;28;20031;-45
2023/12/04 10:55:39;;;;;;;12.40;5.07;;;;;;;;;;5107736;28;20040;-45
2023/12/04 10:58:07;;;;;;;12.70;4.78;;;;;;;;;;5107337;28;20027;-52
2023/12/04 11:00:34;;;;;;;12.93;5.07;;;;;;;;;;5109060;27;20089;-46
2023/12/04 11:03:06;;;;;;;19.65;5.50;;;;;;;;;;5141494;27;20062;-45
2023/12/04 11:05:33;;;;;;;15.07;6.32;;;;;;;;;;5114412;27;20026;-47
2023/12/04 11:08:01;;;;;;;14.27;6.20;;;;;;;;;;5116981;27;20372;-53
2023/12/04 11:10:29;;;;;;;17.20;6.40;;;;;;;;;;5122247;28;20027;-50
2023/12/04 11:12:59;;;;;;;16.27;5.85;;;;;;;;;;5126657;27;20020;-48
2023/12/04 11:15:26;;;;;;;13.80;5.63;;;;;;;;;;5113059;28;20031;-45
2023/12/04 11:17:55;;;;;;;16.75;5.78;;;;;;;;;;5116531;27;20095;-44
2023/12/04 11:20:25;;;;;;;17.83;6.45;;;;;;;;;;5127263;28;20111;-51
2023/12/04 11:22:52;;;;;;;22.80;7.10;;;;;;;;;;5123986;27;20028;-44
2023/12/04 11:25:19;;;;;;;24.60;7.10;;;;;;;;;;5107944;28;20032;-43
2023/12/04 11:27:46;;;;;;;16.88;6.07;;;;;;;;;;5112488;27;20016;-45
2023/12/04 11:30:13;;;;;;;19.38;7.10;;;;;;;;;;5128463;27;20293;-47
2023/12/04 11:32:47;;;;;;;16.52;6.88;;;;;;;;;;5144098;27;20035;-51
2023/12/04 11:35:17;;;;;;;20.33;7.13;;;;;;;;;;5140436;27;20295;-48
2023/12/04 11:37:44;;;;;;;24.00;7.05;;;;;;;;;;5107476;28;20028;-45
2023/12/04 11:40:17;;;;;;;33.33;7.80;;;;;;;;;;5110385;28;20020;-50
2023/12/04 11:42:44;;;;;;;18.55;6.97;;;;;;;;;;5125516;28;20246;-51
2023/12/04 11:45:10;;;;;;;16.90;6.32;;;;;;;;;;5126423;28;20038;-48
2023/12/04 11:47:50;;;;;;;22.10;7.60;;;;;;;;;;5126275;28;20023;-52
2023/12/04 11:50:19;;;;;;;19.27;6.60;;;;;;;;;;5128171;28;20248;-50
2023/12/04 11:52:45;;;;;;;16.23;5.97;;;;;;;;;;5127845;28;20027;-50
2023/12/04 11:55:12;;;;;;;26.75;6.10;;;;;;;;;;5127338;28;20060;-50
2023/12/04 11:57:40;;;;;;;17.75;6.07;;;;;;;;;;5126529;28;20318;-51
2023/12/04 12:00:17;;;;;;;11.38;5.60;;;;;;;;;;5126497;28;20027;-47
2023/12/04 12:03:06;;;;;;;12.68;5.40;;;;;;;;;;5125795;28;20081;-45
2023/12/04 12:05:35;;;;;;;16.88;4.80;;;;;;;;;;5125832;28;20083;-48
2023/12/04 12:08:03;;;;;;;15.90;5.55;;;;;;;;;;5127324;28;20050;-49
2023/12/04 12:10:30;;;;;;;15.73;5.43;;;;;;;;;;5127641;28;20256;-48
2023/12/04 12:12:58;;;;;;;16.77;5.10;;;;;;;;;;5127107;28;20020;-49
2023/12/04 12:15:25;;;;;;;17.45;5.18;;;;;;;;;;5127805;28;20316;-47
2023/12/04 12:17:52;;;;;;;15.23;5.00;;;;;;;;;;5127189;28;20091;-51
2023/12/04 12:20:20;;;;;;;19.02;4.90;;;;;;;;;;5127408;28;20059;-47
2023/12/04 12:22:49;;;;;;;24.27;4.80;;;;;;;;;;5126907;28;20283;-48
2023/12/04 12:25:15;;;;;;;11.45;4.40;;;;;;;;;;5127281;28;20034;-49
2023/12/04 12:27:43;;;;;;;19.15;5.50;;;;;;;;;;5127295;28;20015;-48
2023/12/04 12:30:11;;;;;;;12.55;4.28;;;;;;;;;;5127113;28;20295;-52
2023/12/04 12:32:37;;;;;;;9.45;3.80;;;;;;;;;;5126935;28;20043;-45
2023/12/04 12:35:04;;;;;;;22.63;4.88;;;;;;;;;;5126565;28;20181;-47
2023/12/04 12:37:31;;;;;;;18.55;4.68;;;;;;;;;;5126600;28;20076;-46
2023/12/04 12:39:58;;;;;;;11.18;4.05;;;;;;;;;;5126523;28;20242;-50
2023/12/04 12:42:29;;;;;;;18.73;4.25;;;;;;;;;;5126380;28;20028;-50
2023/12/04 12:44:56;;;;;;;11.98;4.30;;;;;;;;;;5125806;28;20058;-49
2023/12/04 12:47:23;;;;;;;11.05;3.70;;;;;;;;;;5126106;28;20177;-52
2023/12/04 12:49:50;;;;;;;51.47;6.72;;;;;;;;;;5125568;28;20018;-49
2023/12/04 12:52:17;;;;;;;91.43;12.68;;;;;;;;;;5124568;28;20098;-51
2023/12/04 12:54:44;;;;;;;62.50;9.35;;;;;;;;;;5123345;28;20032;-51
2023/12/04 12:57:12;;;;;;;47.60;7.90;;;;;;;;;;5125529;28;20019;-51
2023/12/04 12:59:41;;;;;;;51.47;7.45;;;;;;;;;;5125801;28;20032;-55
2023/12/04 13:02:09;;;;;;;44.00;5.93;;;;;;;;;;5121039;28;20339;-52
2023/12/04 13:04:41;;;;;;;31.90;5.32;;;;;;;;;;5142513;27;20060;-55
2023/12/04 13:07:08;;;;;;;30.52;5.75;;;;;;;;;;5130894;27;20435;-52
2023/12/04 13:09:36;;;;;;;31.38;5.35;;;;;;;;;;5086865;28;20035;-52
2023/12/04 13:12:04;;;;;;;66.60;7.70;;;;;;;;;;5097955;28;20086;-49
2023/12/04 13:14:31;;;;;;;168.68;15.25;;;;;;;;;;5105356;28;20059;-51
2023/12/04 13:16:58;;;;;;;70.13;8.45;;;;;;;;;;5104942;28;20078;-52
2023/12/04 13:19:24;;;;;;;49.80;7.40;;;;;;;;;;5105253;28;20030;-48
2023/12/04 13:21:51;;;;;;;54.30;7.82;;;;;;;;;;5127707;27;20051;-49
2023/12/04 13:24:18;;;;;;;58.80;8.02;;;;;;;;;;5124907;28;20090;-52
2023/12/04 13:26:47;;;;;;;35.40;6.60;;;;;;;;;;5123649;28;20203;-60
2023/12/04 13:29:19;;;;;;;40.47;6.72;;;;;;;;;;5124999;28;20096;-42
2023/12/04 13:31:49;;;;;;;39.85;6.50;;;;;;;;;;5110682;28;20039;-45
2023/12/04 13:34:18;;;;;;;26.35;5.38;;;;;;;;;;5107002;28;20088;-46
2023/12/04 13:36:45;;;;;;;21.90;4.65;;;;;;;;;;5085843;28;20028;-47
2023/12/04 13:39:27;;;;;;;34.13;6.28;;;;;;;;;;5104779;28;20036;-48
2023/12/04 13:44:39;;;;;;;23.77;5.82;;;;;;;;;;5104674;28;20046;-42
2023/12/04 13:47:05;;;;;;;29.55;5.75;;;;;;;;;;5104187;28;20242;-50
2023/12/04 13:49:33;;;;;;;46.22;7.13;;;;;;;;;;5103882;28;20032;-49
2023/12/04 13:52:00;;;;;;;80.05;10.18;;;;;;;;;;5104468;28;20186;-50
2023/12/04 13:54:43;;;;;;;42.60;7.38;;;;;;;;;;5104395;28;20080;-50
2023/12/04 13:57:13;;;;;;;43.95;8.27;;;;;;;;;;5104058;28;20020;-48
2023/12/04 13:59:42;;;;;;;45.70;7.63;;;;;;;;;;5116233;28;20334;-51
2023/12/04 14:02:11;;;;;;;59.58;9.05;;;;;;;;;;5120250;28;20043;-54
2023/12/04 14:04:41;;;;;;;48.65;7.75;;;;;;;;;;5121795;28;20031;-53
2023/12/04 14:07:08;;;;;;;51.80;8.68;;;;;;;;;;5117599;28;20023;-49
2023/12/04 14:09:35;;;;;;;55.80;9.50;;;;;;;;;;5123016;28;20057;-52
2023/12/04 14:12:03;;;;;;;38.08;7.38;;;;;;;;;;5122722;28;20199;-49
2023/12/04 14:14:33;;;;;;;36.33;8.20;;;;;;;;;;5120047;28;20032;-47
2023/12/04 14:17:00;;;;;;;40.85;8.02;;;;;;;;;;5122221;28;20031;-50
2023/12/04 14:19:27;;;;;;;39.63;8.93;;;;;;;;;;5120043;28;20020;-50
2023/12/04 14:21:54;;;;;;;33.17;7.65;;;;;;;;;;5122186;28;20051;-49
2023/12/04 14:24:21;;;;;;;25.92;7.45;;;;;;;;;;5122794;28;20028;-48
2023/12/04 14:26:49;;;;;;;26.33;6.47;;;;;;;;;;5119948;28;20016;-46
2023/12/04 14:29:16;;;;;;;24.65;6.15;;;;;;;;;;5122607;28;20035;-45
2023/12/04 14:31:42;;;;;;;27.80;6.63;;;;;;;;;;5122519;28;20034;-45
2023/12/04 14:34:09;;;;;;;21.42;5.38;;;;;;;;;;5122624;28;20023;-47
2023/12/04 14:36:37;;;;;;;21.05;5.55;;;;;;;;;;5122273;28;20028;-49